createdAt,value
2023-03-26T00:00:04.270Z,6.24
2023-03-26T00:01:14.215Z,6.41
2023-03-26T00:02:17.256Z,6.27
2023-03-26T00:03:20.793Z,6.24
2023-03-26T00:04:25.759Z,6.22
2023-03-26T00:05:28.742Z,6.31
2023-03-26T00:06:36.979Z,6.19
2023-03-26T00:07:40.320Z,6.26
2023-03-26T00:08:45.967Z,6.21
2023-03-26T00:09:49.188Z,6.25
2023-03-26T00:10:52.300Z,6.50
2023-03-26T00:11:55.896Z,6.32
2023-03-26T00:12:59.017Z,6.15
2023-03-26T00:14:02.924Z,6.10
2023-03-26T00:15:06.836Z,6.06
2023-03-26T00:16:14.254Z,5.98
2023-03-26T00:17:17.110Z,5.99
2023-03-26T00:18:21.794Z,6.22
2023-03-26T00:19:25.558Z,6.30
2023-03-26T00:20:30.502Z,6.28
2023-03-26T00:21:33.598Z,6.27
2023-03-26T00:22:36.583Z,6.24
2023-03-26T00:23:39.785Z,6.19
2023-03-26T00:24:46.195Z,6.19
2023-03-26T00:25:51.400Z,6.35
2023-03-26T00:26:55.197Z,6.35
2023-03-26T00:27:58.696Z,6.37
2023-03-26T00:29:04.039Z,6.18
2023-03-26T00:30:07.821Z,6.31
2023-03-26T00:31:15.420Z,6.49
2023-03-26T00:32:18.378Z,6.27
2023-03-26T00:33:21.383Z,6.37
2023-03-26T00:34:25.007Z,6.41
2023-03-26T00:35:29.561Z,6.36
2023-03-26T00:36:36.161Z,6.31
2023-03-26T00:37:42.626Z,6.39
2023-03-26T00:38:47.068Z,6.33
2023-03-26T00:39:50.040Z,6.24
2023-03-26T00:40:53.164Z,6.31
2023-03-26T00:41:56.178Z,6.32
2023-03-26T00:42:59.142Z,6.32
2023-03-26T00:44:02.313Z,6.35
2023-03-26T00:45:07.688Z,6.37
2023-03-26T00:46:11.105Z,6.31
2023-03-26T00:47:14.414Z,6.28
2023-03-26T00:48:18.366Z,6.22
2023-03-26T00:49:21.381Z,6.15
2023-03-26T00:50:24.246Z,6.26
2023-03-26T00:51:29.157Z,6.35
2023-03-26T00:52:31.992Z,6.19
2023-03-26T00:53:35.063Z,6.19
2023-03-26T00:54:37.950Z,6.24
2023-03-26T00:55:45.716Z,6.27
2023-03-26T00:56:49.010Z,6.38
2023-03-26T00:57:52.053Z,6.35
2023-03-26T00:58:55.176Z,6.38
2023-03-26T00:59:58.832Z,6.24
2023-03-26T01:01:05.550Z,6.36
2023-03-26T01:02:17.620Z,6.34
2023-03-26T01:03:27.850Z,6.22
2023-03-26T01:04:35.051Z,6.08
2023-03-26T01:06:05.096Z,6.06
2023-03-26T01:07:14.237Z,6.14
2023-03-26T01:08:38.453Z,6.14
2023-03-26T01:09:45.440Z,6.13
2023-03-26T01:10:52.826Z,6.12
2023-03-26T01:11:56.397Z,6.10
2023-03-26T01:12:59.555Z,6.16
2023-03-26T01:14:10.096Z,6.02
2023-03-26T01:15:14.100Z,6.20
2023-03-26T01:16:26.502Z,6.29
2023-03-26T01:17:34.566Z,6.31
2023-03-26T01:18:41.480Z,6.27
2023-03-26T01:20:13.610Z,6.25
2023-03-26T01:21:22.933Z,6.14
2023-03-26T01:22:27.357Z,6.18
2023-03-26T01:23:49.182Z,6.18
2023-03-26T01:24:56.924Z,6.16
2023-03-26T01:26:16.504Z,6.17
2023-03-26T01:27:44.403Z,6.28
2023-03-26T01:28:49.050Z,6.14
2023-03-26T01:29:56.723Z,6.09
2023-03-26T01:31:10.324Z,6.07
2023-03-26T01:32:49.560Z,6.11
2023-03-26T01:34:12.749Z,5.97
2023-03-26T01:35:43.988Z,5.93
2023-03-26T01:37:21.156Z,6.10
2023-03-26T01:38:46.922Z,5.97
2023-03-26T01:39:53.905Z,6.01
2023-03-26T01:41:07.652Z,5.90
2023-03-26T01:42:15.857Z,5.97
2023-03-26T01:43:26.192Z,6.02
2023-03-26T01:44:45.311Z,6.01
2023-03-26T01:45:50.967Z,5.87
2023-03-26T01:46:54.757Z,5.92
2023-03-26T01:47:58.708Z,5.85
2023-03-26T01:49:05.708Z,5.85
2023-03-26T01:50:09.235Z,5.89
2023-03-26T01:51:13.753Z,5.93
2023-03-26T01:52:21.139Z,5.91
2023-03-26T01:53:24.165Z,5.87
2023-03-26T01:54:30.467Z,5.89
2023-03-26T01:55:54.356Z,5.96
2023-03-26T01:57:16.688Z,5.89
2023-03-26T01:58:36.713Z,5.95
2023-03-26T02:00:24.243Z,5.95
2023-03-26T02:01:45.501Z,5.88
2023-03-26T02:03:18.410Z,5.85
2023-03-26T02:04:25.184Z,5.85
2023-03-26T02:05:46.538Z,5.71
2023-03-26T02:07:21.586Z,5.85
2023-03-26T02:08:47.646Z,5.58
2023-03-26T02:09:58.995Z,5.41
2023-03-26T02:11:11.850Z,5.44
2023-03-26T02:12:15.713Z,5.48
2023-03-26T02:13:19.649Z,5.41
2023-03-26T02:14:44.372Z,5.23
2023-03-26T02:16:06.385Z,5.22
2023-03-26T02:17:11.124Z,5.24
2023-03-26T02:18:15.626Z,5.33
2023-03-26T02:19:22.039Z,5.17
2023-03-26T02:20:25.920Z,5.31
2023-03-26T02:21:29.291Z,5.34
2023-03-26T02:22:32.881Z,5.42
2023-03-26T02:23:38.872Z,5.36
2023-03-26T02:24:44.795Z,5.36
2023-03-26T02:25:48.388Z,5.29
2023-03-26T02:26:51.828Z,5.35
2023-03-26T02:27:54.904Z,5.27
2023-03-26T02:28:59.121Z,5.36
2023-03-26T02:30:02.648Z,5.38
2023-03-26T02:31:06.242Z,5.41
2023-03-26T02:32:14.218Z,5.42
2023-03-26T02:33:17.484Z,5.34
2023-03-26T02:34:20.615Z,5.23
2023-03-26T02:35:23.717Z,5.24
2023-03-26T02:36:28.513Z,5.30
2023-03-26T02:37:34.120Z,5.31
2023-03-26T02:38:37.449Z,5.36
2023-03-26T02:39:40.572Z,5.27
2023-03-26T02:40:43.968Z,5.30
2023-03-26T02:41:46.798Z,5.27
2023-03-26T02:42:50.201Z,5.16
2023-03-26T02:43:53.065Z,5.14
2023-03-26T02:44:56.016Z,4.98
2023-03-26T02:45:59.328Z,4.86
2023-03-26T02:47:02.565Z,4.91
2023-03-26T02:48:05.705Z,4.98
2023-03-26T02:49:08.807Z,4.88
2023-03-26T02:50:12.870Z,4.79
2023-03-26T02:51:18.489Z,4.83
2023-03-26T02:52:21.823Z,4.81
2023-03-26T02:53:30.746Z,4.94
2023-03-26T02:54:34.709Z,4.99
2023-03-26T02:55:38.649Z,5.01
2023-03-26T02:56:41.652Z,4.98
2023-03-26T02:57:44.848Z,4.88
2023-03-26T02:58:48.569Z,4.87
2023-03-26T02:59:53.005Z,5.00
2023-03-26T03:00:56.811Z,4.94
2023-03-26T03:01:59.876Z,4.85
2023-03-26T03:03:04.888Z,4.80
2023-03-26T03:04:08.561Z,4.77
2023-03-26T03:05:11.931Z,4.80
2023-03-26T03:06:19.289Z,4.77
2023-03-26T03:07:22.986Z,4.77
2023-03-26T03:08:28.567Z,4.69
2023-03-26T03:09:32.013Z,4.76
2023-03-26T03:10:34.892Z,4.73
2023-03-26T03:11:41.751Z,4.75
2023-03-26T03:12:45.233Z,4.75
2023-03-26T03:13:48.762Z,4.74
2023-03-26T03:14:51.718Z,4.77
2023-03-26T03:15:55.096Z,4.79
2023-03-26T03:16:58.779Z,4.59
2023-03-26T03:18:01.976Z,4.59
2023-03-26T03:19:06.453Z,4.66
2023-03-26T03:20:11.806Z,4.62
2023-03-26T03:21:14.993Z,4.68
2023-03-26T03:22:18.057Z,4.62
2023-03-26T03:23:21.447Z,4.59
2023-03-26T03:24:24.232Z,4.60
2023-03-26T03:25:27.139Z,4.70
2023-03-26T03:26:30.818Z,4.65
2023-03-26T03:27:33.813Z,4.58
2023-03-26T03:28:37.286Z,4.56
2023-03-26T03:29:40.163Z,4.42
2023-03-26T03:30:43.386Z,4.53
2023-03-26T03:31:46.672Z,4.56
2023-03-26T03:32:49.610Z,4.54
2023-03-26T03:33:52.809Z,4.60
2023-03-26T03:34:55.647Z,4.61
2023-03-26T03:35:59.612Z,4.54
2023-03-26T03:37:02.516Z,4.55
2023-03-26T03:38:05.591Z,4.62
2023-03-26T03:39:08.938Z,4.63
2023-03-26T03:40:12.249Z,4.75
2023-03-26T03:41:15.285Z,4.68
2023-03-26T03:42:18.375Z,4.69
2023-03-26T03:43:21.408Z,4.79
2023-03-26T03:44:24.574Z,4.76
2023-03-26T03:45:27.438Z,4.58
2023-03-26T03:46:30.609Z,4.44
2023-03-26T03:47:33.777Z,4.62
2023-03-26T03:48:39.794Z,4.52
2023-03-26T03:49:42.813Z,4.57
2023-03-26T03:50:45.760Z,4.42
2023-03-26T03:51:48.717Z,4.25
2023-03-26T03:52:51.918Z,4.23
2023-03-26T03:53:56.136Z,4.30
2023-03-26T03:55:00.656Z,4.29
2023-03-26T03:56:04.543Z,4.33
2023-03-26T03:57:07.530Z,4.36
2023-03-26T03:58:10.557Z,4.38
2023-03-26T03:59:13.690Z,4.31
2023-03-26T04:00:17.288Z,4.28
2023-03-26T04:01:23.031Z,4.27
2023-03-26T04:02:35.396Z,4.17
2023-03-26T04:03:39.244Z,4.31
2023-03-26T04:04:42.390Z,4.23
2023-03-26T04:05:50.134Z,4.27
2023-03-26T04:06:53.333Z,4.26
2023-03-26T04:07:56.274Z,4.31
2023-03-26T04:08:59.186Z,4.30
2023-03-26T04:10:05.311Z,4.36
2023-03-26T04:11:11.349Z,4.38
2023-03-26T04:12:14.511Z,4.44
2023-03-26T04:13:18.093Z,4.46
2023-03-26T04:14:21.159Z,4.48
2023-03-26T04:15:24.459Z,4.45
2023-03-26T04:16:27.518Z,4.41
2023-03-26T04:17:30.813Z,4.51
2023-03-26T04:18:34.475Z,4.55
2023-03-26T04:19:37.667Z,4.57
2023-03-26T04:20:47.097Z,4.45
2023-03-26T04:21:50.139Z,4.50
2023-03-26T04:22:53.344Z,4.46
2023-03-26T04:23:56.818Z,4.47
2023-03-26T04:25:02.700Z,4.43
2023-03-26T04:26:10.673Z,4.45
2023-03-26T04:27:17.997Z,4.39
2023-03-26T04:28:36.692Z,4.37
2023-03-26T04:29:44.206Z,4.41
2023-03-26T04:30:47.161Z,4.45
2023-03-26T04:31:51.317Z,4.38
2023-03-26T04:32:58.853Z,4.33
2023-03-26T04:34:13.832Z,4.34
2023-03-26T04:35:18.583Z,4.36
2023-03-26T04:36:28.692Z,4.36
2023-03-26T04:37:40.186Z,4.43
2023-03-26T04:38:49.267Z,4.34
2023-03-26T04:39:52.320Z,4.41
2023-03-26T04:40:55.227Z,4.51
2023-03-26T04:41:59.209Z,4.30
2023-03-26T04:43:05.250Z,4.19
2023-03-26T04:44:08.182Z,4.26
2023-03-26T04:45:11.549Z,4.25
2023-03-26T04:46:14.747Z,4.19
2023-03-26T04:47:19.143Z,4.24
2023-03-26T04:48:22.977Z,4.22
2023-03-26T04:49:25.968Z,4.15
2023-03-26T04:50:29.038Z,4.15
2023-03-26T04:51:38.677Z,4.21
2023-03-26T04:52:43.941Z,4.24
2023-03-26T04:54:00.040Z,4.37
2023-03-26T04:55:03.631Z,4.31
2023-03-26T04:56:30.213Z,4.43
2023-03-26T04:57:44.005Z,4.56
2023-03-26T04:58:48.368Z,4.51
2023-03-26T04:59:51.612Z,4.56
2023-03-26T05:00:55.551Z,4.62
2023-03-26T05:02:02.832Z,4.79
2023-03-26T05:03:06.565Z,4.93
2023-03-26T05:04:09.485Z,4.91
2023-03-26T05:05:12.606Z,5.04
2023-03-26T05:06:17.914Z,5.10
2023-03-26T05:07:24.241Z,5.09
2023-03-26T05:08:29.269Z,5.14
2023-03-26T05:09:32.302Z,5.25
2023-03-26T05:10:35.123Z,5.28
2023-03-26T05:11:38.814Z,5.29
2023-03-26T05:12:42.257Z,5.34
2023-03-26T05:13:45.219Z,5.36
2023-03-26T05:14:48.041Z,5.36
2023-03-26T05:15:51.119Z,5.47
2023-03-26T05:16:54.510Z,5.52
2023-03-26T05:17:58.289Z,5.72
2023-03-26T05:19:01.482Z,5.69
2023-03-26T05:20:05.217Z,5.73
2023-03-26T05:21:08.654Z,5.78
2023-03-26T05:22:11.492Z,5.95
2023-03-26T05:23:14.387Z,5.95
2023-03-26T05:24:17.242Z,5.96
2023-03-26T05:25:20.324Z,6.04
2023-03-26T05:26:23.102Z,6.04
2023-03-26T05:27:26.224Z,6.06
2023-03-26T05:28:32.200Z,6.09
2023-03-26T05:29:35.268Z,6.15
2023-03-26T05:30:38.695Z,6.23
2023-03-26T05:31:41.761Z,6.22
2023-03-26T05:32:45.027Z,6.24
2023-03-26T05:33:48.802Z,6.27
2023-03-26T05:34:51.616Z,6.37
2023-03-26T05:36:15.707Z,6.41
2023-03-26T05:37:20.173Z,6.41
2023-03-26T05:38:23.413Z,6.42
2023-03-26T05:39:27.176Z,6.48
2023-03-26T05:40:30.031Z,6.60
2023-03-26T05:41:32.824Z,6.52
2023-03-26T05:42:35.847Z,6.45
2023-03-26T05:43:39.149Z,6.52
2023-03-26T05:44:42.055Z,6.50
2023-03-26T05:45:47.548Z,6.60
2023-03-26T05:46:51.405Z,6.70
2023-03-26T05:47:56.094Z,6.61
2023-03-26T05:48:59.248Z,6.50
2023-03-26T05:50:02.531Z,6.51
2023-03-26T05:51:06.853Z,6.58
2023-03-26T05:52:09.706Z,6.54
2023-03-26T05:53:12.509Z,6.49
2023-03-26T05:54:15.541Z,6.45
2023-03-26T05:55:20.329Z,6.43
2023-03-26T05:56:23.264Z,6.48
2023-03-26T05:57:29.319Z,6.39
2023-03-26T05:58:34.268Z,6.58
2023-03-26T05:59:37.685Z,6.69
2023-03-26T06:00:40.490Z,6.92
2023-03-26T06:01:45.406Z,6.79
2023-03-26T06:02:48.354Z,6.79
2023-03-26T06:03:52.365Z,6.75
2023-03-26T06:04:57.037Z,6.70
2023-03-26T06:06:00.247Z,6.76
2023-03-26T06:07:04.077Z,6.78
2023-03-26T06:08:07.404Z,6.88
2023-03-26T06:09:12.293Z,6.85
2023-03-26T06:10:18.358Z,6.88
2023-03-26T06:11:22.210Z,6.83
2023-03-26T06:12:25.096Z,6.91
2023-03-26T06:13:28.168Z,6.96
2023-03-26T06:14:31.430Z,7.05
2023-03-26T06:15:35.401Z,7.12
2023-03-26T06:16:38.465Z,7.10
2023-03-26T06:17:41.388Z,7.22
2023-03-26T06:18:46.566Z,7.25
2023-03-26T06:19:49.835Z,7.26
2023-03-26T06:20:53.247Z,7.29
2023-03-26T06:21:56.228Z,7.43
2023-03-26T06:22:59.169Z,7.50
2023-03-26T06:24:02.112Z,7.59
2023-03-26T06:25:05.520Z,7.74
2023-03-26T06:26:08.440Z,7.81
2023-03-26T06:27:11.718Z,7.94
2023-03-26T06:28:16.227Z,8.09
2023-03-26T06:29:19.362Z,8.31
2023-03-26T06:30:22.504Z,8.55
2023-03-26T06:31:25.696Z,8.67
2023-03-26T06:32:28.817Z,8.74
2023-03-26T06:33:31.854Z,8.98
2023-03-26T06:34:34.724Z,8.86
2023-03-26T06:35:37.834Z,8.94
2023-03-26T06:36:41.074Z,9.14
2023-03-26T06:37:44.188Z,9.19
2023-03-26T06:38:48.717Z,9.32
2023-03-26T06:39:51.533Z,9.46
2023-03-26T06:40:54.591Z,9.68
2023-03-26T06:41:57.809Z,9.71
2023-03-26T06:43:07.834Z,9.75
2023-03-26T06:44:13.566Z,9.72
2023-03-26T06:45:17.298Z,9.82
2023-03-26T06:46:21.808Z,9.82
2023-03-26T06:47:24.787Z,9.97
2023-03-26T06:48:27.938Z,10.11
2023-03-26T06:49:31.026Z,10.18
2023-03-26T06:50:34.538Z,10.34
2023-03-26T06:51:39.788Z,10.53
2023-03-26T06:52:42.745Z,10.59
2023-03-26T06:53:45.623Z,10.83
2023-03-26T06:54:48.410Z,10.92
2023-03-26T06:55:52.634Z,10.96
2023-03-26T06:56:55.741Z,11.05
2023-03-26T06:57:59.053Z,11.18
2023-03-26T06:59:03.297Z,11.08
2023-03-26T07:00:07.280Z,11.14
2023-03-26T07:01:10.690Z,11.32
2023-03-26T07:02:13.639Z,11.54
2023-03-26T07:03:17.533Z,11.58
2023-03-26T07:04:20.635Z,11.67
2023-03-26T07:05:23.660Z,11.68
2023-03-26T07:06:26.841Z,11.81
2023-03-26T07:07:29.760Z,11.93
2023-03-26T07:08:33.541Z,12.08
2023-03-26T07:09:36.586Z,11.89
2023-03-26T07:10:40.040Z,11.84
2023-03-26T07:11:43.009Z,11.87
2023-03-26T07:12:46.239Z,12.01
2023-03-26T07:13:49.117Z,11.95
2023-03-26T07:14:52.465Z,12.06
2023-03-26T07:15:55.259Z,11.95
2023-03-26T07:16:59.387Z,11.92
2023-03-26T07:18:02.459Z,12.01
2023-03-26T07:19:05.380Z,12.00
2023-03-26T07:20:09.172Z,11.87
2023-03-26T07:21:12.949Z,12.02
2023-03-26T07:22:24.523Z,11.97
2023-03-26T07:23:27.627Z,11.87
2023-03-26T07:24:30.825Z,12.01
2023-03-26T07:25:34.298Z,12.02
2023-03-26T07:27:03.740Z,11.94
2023-03-26T07:28:13.916Z,12.05
2023-03-26T07:29:44.286Z,11.99
2023-03-26T07:31:14.889Z,12.03
2023-03-26T07:32:32.603Z,12.06
2023-03-26T07:33:38.591Z,12.23
2023-03-26T07:35:02.583Z,12.41
2023-03-26T07:36:21.802Z,12.32
2023-03-26T07:37:58.105Z,12.28
2023-03-26T07:39:37.073Z,12.40
2023-03-26T07:41:01.804Z,12.29
2023-03-26T07:42:28.285Z,12.31
2023-03-26T07:43:48.141Z,12.35
2023-03-26T07:45:08.518Z,12.17
2023-03-26T07:46:13.462Z,12.02
2023-03-26T07:47:29.017Z,11.73
2023-03-26T07:48:42.612Z,11.59
2023-03-26T07:49:45.907Z,11.55
2023-03-26T07:50:49.305Z,11.64
2023-03-26T07:51:52.379Z,11.65
2023-03-26T07:52:55.930Z,11.49
2023-03-26T07:54:04.389Z,11.63
2023-03-26T07:55:08.316Z,11.70
2023-03-26T07:56:14.594Z,11.58
2023-03-26T07:57:55.618Z,11.63
2023-03-26T07:59:20.639Z,11.78
2023-03-26T08:00:35.346Z,11.83
2023-03-26T08:02:13.204Z,11.73
2023-03-26T08:03:23.368Z,11.74
2023-03-26T08:05:04.221Z,11.59
2023-03-26T08:06:07.281Z,11.57
2023-03-26T08:07:24.563Z,11.57
2023-03-26T08:08:38.803Z,11.48
2023-03-26T08:10:15.282Z,11.59
2023-03-26T08:11:35.209Z,11.69
2023-03-26T08:12:51.569Z,11.68
2023-03-26T08:14:24.842Z,11.72
2023-03-26T08:15:57.992Z,11.70
2023-03-26T08:17:34.872Z,11.89
2023-03-26T08:18:52.190Z,12.00
2023-03-26T08:20:20.633Z,12.07
2023-03-26T08:21:23.746Z,11.79
2023-03-26T08:22:34.735Z,11.87
2023-03-26T08:23:50.662Z,11.77
2023-03-26T08:25:34.444Z,11.88
2023-03-26T08:27:04.431Z,12.11
2023-03-26T08:28:33.362Z,12.12
2023-03-26T08:29:56.125Z,12.01
2023-03-26T08:31:03.141Z,11.90
2023-03-26T08:32:14.186Z,11.84
2023-03-26T08:33:17.055Z,11.89
2023-03-26T08:34:19.835Z,11.89
2023-03-26T08:35:23.612Z,12.01
2023-03-26T08:36:27.106Z,11.90
2023-03-26T08:37:30.001Z,11.90
2023-03-26T08:38:33.398Z,12.11
2023-03-26T08:39:39.037Z,12.17
2023-03-26T08:41:09.035Z,12.20
2023-03-26T08:42:40.664Z,12.14
2023-03-26T08:44:04.392Z,12.28
2023-03-26T08:45:26.096Z,12.28
2023-03-26T08:46:42.249Z,12.32
2023-03-26T08:48:08.270Z,12.33
2023-03-26T08:49:25.273Z,12.49
2023-03-26T08:51:33.782Z,12.49
2023-03-26T08:53:13.970Z,12.49
2023-03-26T08:54:32.061Z,12.58
2023-03-26T08:55:44.011Z,12.65
2023-03-26T08:57:13.112Z,12.59
2023-03-26T08:58:35.543Z,12.67
2023-03-26T08:59:41.548Z,12.70
2023-03-26T09:01:22.063Z,12.71
2023-03-26T09:02:53.684Z,12.80
2023-03-26T09:04:29.286Z,12.93
2023-03-26T09:05:37.896Z,12.91
2023-03-26T09:07:07.954Z,12.77
2023-03-26T09:08:35.383Z,12.80
2023-03-26T09:09:50.422Z,12.90
2023-03-26T09:11:35.567Z,12.83
2023-03-26T09:13:05.916Z,13.05
2023-03-26T09:14:49.137Z,13.05
2023-03-26T09:16:29.935Z,13.18
2023-03-26T09:18:28.355Z,13.20
2023-03-26T09:20:08.904Z,13.53
2023-03-26T09:21:25.859Z,13.57
2023-03-26T09:22:48.316Z,14.09
2023-03-26T09:24:09.980Z,14.35
2023-03-26T09:25:35.475Z,14.67
2023-03-26T09:27:20.360Z,14.84
2023-03-26T09:28:41.763Z,14.50
2023-03-26T09:30:18.876Z,14.66
2023-03-26T09:31:46.036Z,14.78
2023-03-26T09:33:23.018Z,14.79
2023-03-26T09:34:31.739Z,15.17
2023-03-26T09:35:54.748Z,15.15
2023-03-26T09:37:06.752Z,15.25
2023-03-26T09:38:46.456Z,15.66
2023-03-26T09:40:05.449Z,15.55
2023-03-26T09:41:17.365Z,15.33
2023-03-26T09:42:48.945Z,15.65
2023-03-26T09:44:09.960Z,15.70
2023-03-26T09:45:18.609Z,16.10
2023-03-26T09:46:30.438Z,16.58
2023-03-26T09:47:44.039Z,16.51
2023-03-26T09:49:14.423Z,16.91
2023-03-26T09:50:26.011Z,17.21
2023-03-26T09:51:46.886Z,17.31
2023-03-26T09:53:28.401Z,17.49
2023-03-26T09:54:49.492Z,17.51
2023-03-26T09:55:55.162Z,17.57
2023-03-26T09:57:29.900Z,17.62
2023-03-26T09:58:51.523Z,17.11
2023-03-26T10:00:07.698Z,16.96
2023-03-26T10:01:43.177Z,16.18
2023-03-26T10:03:13.729Z,15.96
2023-03-26T10:04:40.082Z,15.43
2023-03-26T10:06:02.186Z,15.51
2023-03-26T10:07:30.496Z,15.54
2023-03-26T10:09:02.023Z,15.72
2023-03-26T10:10:26.606Z,15.40
2023-03-26T10:12:06.938Z,15.17
2023-03-26T10:14:04.073Z,14.68
2023-03-26T10:15:31.685Z,14.56
2023-03-26T10:17:01.553Z,14.29
2023-03-26T10:18:55.268Z,13.87
2023-03-26T10:20:40.030Z,13.60
2023-03-26T10:21:48.288Z,13.47
2023-03-26T10:23:23.421Z,13.35
2023-03-26T10:24:44.317Z,13.05
2023-03-26T10:26:04.611Z,12.86
2023-03-26T10:28:03.330Z,12.59
2023-03-26T10:29:35.160Z,12.21
2023-03-26T10:30:59.420Z,11.29
2023-03-26T10:32:23.786Z,11.28
2023-03-26T10:33:42.761Z,11.16
2023-03-26T10:35:20.585Z,11.18
2023-03-26T10:37:02.442Z,11.55
2023-03-26T10:38:18.637Z,12.15
2023-03-26T10:39:44.123Z,12.10
2023-03-26T10:41:06.076Z,12.51
2023-03-26T10:42:46.642Z,13.07
2023-03-26T10:44:07.344Z,13.57
2023-03-26T10:45:14.563Z,13.18
2023-03-26T10:46:42.038Z,13.13
2023-03-26T10:48:00.651Z,13.45
2023-03-26T10:49:25.534Z,13.68
2023-03-26T10:51:06.536Z,13.69
2023-03-26T10:52:38.293Z,13.55
2023-03-26T10:53:52.101Z,13.34
2023-03-26T10:55:09.965Z,13.38
2023-03-26T10:56:58.631Z,13.36
2023-03-26T10:58:48.833Z,13.35
2023-03-26T10:59:55.807Z,13.20
2023-03-26T11:01:06.816Z,13.26
2023-03-26T11:02:29.629Z,13.37
2023-03-26T11:03:54.705Z,13.02
2023-03-26T11:05:15.670Z,12.54
2023-03-26T11:06:32.818Z,12.52
2023-03-26T11:07:58.882Z,12.71
2023-03-26T11:09:24.977Z,12.92
2023-03-26T11:10:55.206Z,13.29
2023-03-26T11:12:26.675Z,14.47
2023-03-26T11:14:05.686Z,14.63
2023-03-26T11:15:28.034Z,14.70
2023-03-26T11:17:00.461Z,14.57
2023-03-26T11:18:09.981Z,14.22
2023-03-26T11:19:21.961Z,14.30
2023-03-26T11:20:46.637Z,14.62
2023-03-26T11:22:03.917Z,14.77
2023-03-26T11:23:18.597Z,14.66
2023-03-26T11:24:36.527Z,14.50
2023-03-26T11:25:42.544Z,14.50
2023-03-26T11:27:15.193Z,14.29
2023-03-26T11:28:31.981Z,13.86
2023-03-26T11:30:06.689Z,13.84
2023-03-26T11:31:41.646Z,14.30
2023-03-26T11:33:02.993Z,15.28
2023-03-26T11:34:13.908Z,15.89
2023-03-26T11:35:47.931Z,16.54
2023-03-26T11:36:56.196Z,17.31
2023-03-26T11:38:06.026Z,17.62
2023-03-26T11:39:15.768Z,18.00
2023-03-26T11:40:24.631Z,18.53
2023-03-26T11:41:33.886Z,18.49
2023-03-26T11:42:37.522Z,18.96
2023-03-26T11:43:40.648Z,18.81
2023-03-26T11:44:57.556Z,19.15
2023-03-26T11:46:03.801Z,19.15
2023-03-26T11:47:12.477Z,19.27
2023-03-26T11:48:37.797Z,19.02
2023-03-26T11:49:41.259Z,18.84
2023-03-26T11:50:58.191Z,18.09
2023-03-26T11:52:02.447Z,18.64
2023-03-26T11:53:15.002Z,19.01
2023-03-26T11:54:19.403Z,18.61
2023-03-26T11:55:24.536Z,18.77
2023-03-26T11:56:36.266Z,18.94
2023-03-26T11:57:48.190Z,18.55
2023-03-26T11:59:01.306Z,18.07
2023-03-26T12:00:18.499Z,17.74
2023-03-26T12:01:40.650Z,17.28
2023-03-26T12:02:45.487Z,16.34
2023-03-26T12:04:04.456Z,16.19
2023-03-26T12:05:15.131Z,15.76
2023-03-26T12:06:29.331Z,15.81
2023-03-26T12:07:35.058Z,15.55
2023-03-26T12:08:43.784Z,15.84
2023-03-26T12:09:56.505Z,16.06
2023-03-26T12:11:04.359Z,16.18
2023-03-26T12:12:07.631Z,16.38
2023-03-26T12:13:42.324Z,16.68
2023-03-26T12:14:45.618Z,17.21
2023-03-26T12:15:48.632Z,16.94
2023-03-26T12:17:04.808Z,16.88
2023-03-26T12:18:26.131Z,16.59
2023-03-26T12:19:40.427Z,16.26
2023-03-26T12:20:45.177Z,16.46
2023-03-26T12:21:50.760Z,16.23
2023-03-26T12:22:59.623Z,16.26
2023-03-26T12:24:05.569Z,16.30
2023-03-26T12:25:16.704Z,16.32
2023-03-26T12:26:30.574Z,16.23
2023-03-26T12:27:33.802Z,16.42
2023-03-26T12:28:45.449Z,16.30
2023-03-26T12:29:53.050Z,16.71
2023-03-26T12:31:02.945Z,16.79
2023-03-26T12:32:13.366Z,16.67
2023-03-26T12:33:29.680Z,16.31
2023-03-26T12:34:38.064Z,16.48
2023-03-26T12:35:41.287Z,16.87
2023-03-26T12:36:56.788Z,16.71
2023-03-26T12:38:23.669Z,16.65
2023-03-26T12:40:09.912Z,16.69
2023-03-26T12:44:44.261Z,17.13
2023-03-26T12:44:48.637Z,17.70
2023-03-26T12:44:49.409Z,17.69
2023-03-26T12:47:15.042Z,17.71
2023-03-26T12:47:56.355Z,17.49
2023-03-26T12:48:49.932Z,17.41
2023-03-26T12:49:54.182Z,17.21
2023-03-26T12:51:34.584Z,16.99
2023-03-26T12:52:49.295Z,16.67
2023-03-26T12:53:59.953Z,16.52
2023-03-26T12:55:12.013Z,16.51
2023-03-26T12:56:20.062Z,16.26
2023-03-26T12:57:33.898Z,16.17
2023-03-26T12:59:14.719Z,15.84
2023-03-26T13:00:46.125Z,15.67
2023-03-26T13:02:01.500Z,15.45
2023-03-26T13:03:38.152Z,15.55
2023-03-26T13:05:05.497Z,15.79
2023-03-26T13:06:59.909Z,16.02
2023-03-26T13:08:13.137Z,16.23
2023-03-26T13:09:43.963Z,16.48
2023-03-26T13:10:58.750Z,16.56
2023-03-26T13:12:16.160Z,16.52
2023-03-26T13:13:40.903Z,16.72
2023-03-26T13:14:49.348Z,17.13
2023-03-26T13:15:57.943Z,17.24
2023-03-26T13:17:01.089Z,16.75
2023-03-26T13:18:35.198Z,16.49
2023-03-26T13:19:57.932Z,16.30
2023-03-26T13:21:16.902Z,16.20
2023-03-26T13:22:34.864Z,16.09
2023-03-26T13:24:03.290Z,16.83
2023-03-26T13:25:22.292Z,17.07
2023-03-26T13:26:59.432Z,17.46
2023-03-26T13:28:15.899Z,17.67
2023-03-26T13:29:58.494Z,17.95
2023-03-26T13:31:16.817Z,17.67
2023-03-26T13:32:32.807Z,18.07
2023-03-26T13:33:49.785Z,17.21
2023-03-26T13:35:05.125Z,17.28
2023-03-26T13:36:22.529Z,17.71
2023-03-26T13:37:39.700Z,17.90
2023-03-26T13:39:03.489Z,18.21
2023-03-26T13:40:26.371Z,18.10
2023-03-26T13:41:47.664Z,17.55
2023-03-26T13:43:14.900Z,17.65
2023-03-26T13:45:05.890Z,17.73
2023-03-26T13:46:21.321Z,17.96
2023-03-26T13:47:30.374Z,17.75
2023-03-26T13:48:59.460Z,18.05
2023-03-26T13:50:19.305Z,17.46
2023-03-26T13:51:29.166Z,17.61
2023-03-26T13:52:46.354Z,17.54
2023-03-26T13:54:26.724Z,18.00
2023-03-26T13:55:37.729Z,18.30
2023-03-26T13:57:21.788Z,18.06
2023-03-26T13:58:39.273Z,17.88
2023-03-26T13:59:54.616Z,17.56
2023-03-26T14:01:08.164Z,16.96
2023-03-26T14:02:25.965Z,16.92
2023-03-26T14:03:50.611Z,17.23
2023-03-26T14:05:01.499Z,17.11
2023-03-26T14:06:34.525Z,16.83
2023-03-26T14:07:45.061Z,16.55
2023-03-26T14:08:58.954Z,16.93
2023-03-26T14:10:04.794Z,17.20
2023-03-26T14:11:20.258Z,17.06
2023-03-26T14:13:11.336Z,17.22
2023-03-26T14:14:24.959Z,16.91
2023-03-26T14:15:32.394Z,16.92
2023-03-26T14:16:44.508Z,17.00
2023-03-26T14:18:18.720Z,16.84
2023-03-26T14:19:22.337Z,16.87
2023-03-26T14:20:44.246Z,16.76
2023-03-26T14:24:03.365Z,16.94
2023-03-26T14:25:09.208Z,17.44
2023-03-26T14:28:33.089Z,17.43
2023-03-26T14:30:12.611Z,17.60
2023-03-26T14:31:23.200Z,17.60
2023-03-26T14:32:42.823Z,17.52
2023-03-26T14:34:13.933Z,17.32
2023-03-26T14:35:17.495Z,17.16
2023-03-26T14:36:39.619Z,17.12
2023-03-26T14:37:49.073Z,17.32
2023-03-26T14:39:14.456Z,17.40
2023-03-26T14:40:48.863Z,17.34
2023-03-26T14:42:22.240Z,17.26
2023-03-26T14:43:26.341Z,16.79
2023-03-26T14:44:47.792Z,16.44
2023-03-26T14:46:37.079Z,16.49
2023-03-26T14:48:00.800Z,16.50
2023-03-26T14:49:22.205Z,16.09
2023-03-26T14:50:46.987Z,16.23
2023-03-26T14:52:14.262Z,16.31
2023-03-26T14:53:34.201Z,16.37
2023-03-26T14:54:46.231Z,16.28
2023-03-26T14:56:04.853Z,16.51
2023-03-26T14:57:20.456Z,16.74
2023-03-26T14:58:51.380Z,16.64
2023-03-26T14:59:54.655Z,16.82
2023-03-26T15:01:18.064Z,16.87
2023-03-26T15:02:55.788Z,16.81
2023-03-26T15:04:30.676Z,16.64
2023-03-26T15:05:48.438Z,16.66
2023-03-26T15:07:16.503Z,16.54
2023-03-26T15:08:48.923Z,16.59
2023-03-26T15:10:01.378Z,16.73
2023-03-26T15:11:26.028Z,16.50
2023-03-26T15:13:00.797Z,16.23
2023-03-26T15:14:37.317Z,16.08
2023-03-26T15:16:16.107Z,15.86
2023-03-26T15:17:46.189Z,16.24
2023-03-26T15:19:13.192Z,16.20
2023-03-26T15:20:35.548Z,15.96
2023-03-26T15:21:44.794Z,15.74
2023-03-26T15:23:13.515Z,15.62
2023-03-26T15:24:19.737Z,15.85
2023-03-26T15:25:38.442Z,15.66
2023-03-26T15:26:59.636Z,15.74
2023-03-26T15:28:34.622Z,15.84
2023-03-26T15:30:15.406Z,15.75
2023-03-26T15:31:47.751Z,15.68
2023-03-26T15:33:05.505Z,15.53
2023-03-26T15:34:34.566Z,15.35
2023-03-26T15:36:18.070Z,15.43
2023-03-26T15:37:40.041Z,15.56
2023-03-26T15:39:05.791Z,15.65
2023-03-26T15:40:29.929Z,15.35
2023-03-26T15:41:42.363Z,15.37
2023-03-26T15:42:49.196Z,15.44
2023-03-26T15:44:24.216Z,15.46
2023-03-26T15:45:37.987Z,15.48
2023-03-26T15:47:26.409Z,15.35
2023-03-26T15:48:52.990Z,15.29
2023-03-26T15:50:08.564Z,15.32
2023-03-26T15:51:46.819Z,15.14
2023-03-26T15:53:20.078Z,15.14
2023-03-26T15:54:33.739Z,15.16
2023-03-26T15:56:18.072Z,15.19
2023-03-26T15:57:41.301Z,15.36
2023-03-26T15:59:16.797Z,15.40
2023-03-26T16:00:25.553Z,15.29
2023-03-26T16:01:38.751Z,15.28
2023-03-26T16:03:16.097Z,15.32
2023-03-26T16:04:32.908Z,15.36